sensor_id;sensor_type;location;lat;lon;timestamp;temperature;humidity
28075;DHT22;15385;51.088;6.572;2023-04-24T00:00:51;12.50;99.90
28075;DHT22;15385;51.088;6.572;2023-04-24T00:03:23;12.40;99.90
28075;DHT22;15385;51.088;6.572;2023-04-24T00:05:54;12.50;99.90
28075;DHT22;15385;51.088;6.572;2023-04-24T00:08:25;12.50;99.90
28075;DHT22;15385;51.088;6.572;2023-04-24T00:10:56;12.40;99.90
28075;DHT22;15385;51.088;6.572;2023-04-24T00:13:26;12.40;99.90
28075;DHT22;15385;51.088;6.572;2023-04-24T00:15:58;12.40;99.90
28075;DHT22;15385;51.088;6.572;2023-04-24T00:18:29;12.30;99.90
28075;DHT22;15385;51.088;6.572;2023-04-24T00:20:59;12.30;99.90
28075;DHT22;15385;51.088;6.572;2023-04-24T00:23:30;12.30;99.90
28075;DHT22;15385;51.088;6.572;2023-04-24T00:26:01;12.30;99.90
28075;DHT22;15385;51.088;6.572;2023-04-24T00:28:32;12.30;99.90
28075;DHT22;15385;51.088;6.572;2023-04-24T00:31:02;12.30;99.90
28075;DHT22;15385;51.088;6.572;2023-04-24T00:33:33;12.40;99.90
28075;DHT22;15385;51.088;6.572;2023-04-24T00:36:04;12.40;99.90
28075;DHT22;15385;51.088;6.572;2023-04-24T00:38:34;12.50;99.90
28075;DHT22;15385;51.088;6.572;2023-04-24T00:41:05;12.50;99.90
28075;DHT22;15385;51.088;6.572;2023-04-24T00:43:36;12.40;99.90
28075;DHT22;15385;51.088;6.572;2023-04-24T00:46:07;12.30;99.90
28075;DHT22;15385;51.088;6.572;2023-04-24T00:48:39;12.20;99.90
28075;DHT22;15385;51.088;6.572;2023-04-24T00:51:10;12.20;99.90
28075;DHT22;15385;51.088;6.572;2023-04-24T00:53:40;12.10;99.90
28075;DHT22;15385;51.088;6.572;2023-04-24T00:56:11;12.00;99.90
28075;DHT22;15385;51.088;6.572;2023-04-24T00:58:42;12.00;99.90
28075;DHT22;15385;51.088;6.572;2023-04-24T01:01:13;12.00;99.90
28075;DHT22;15385;51.088;6.572;2023-04-24T01:03:44;11.90;99.90
28075;DHT22;15385;51.088;6.572;2023-04-24T01:06:15;11.80;99.90
28075;DHT22;15385;51.088;6.572;2023-04-24T01:08:47;11.70;99.90
28075;DHT22;15385;51.088;6.572;2023-04-24T01:11:18;11.60;99.90
28075;DHT22;15385;51.088;6.572;2023-04-24T01:13:48;11.60;99.90
28075;DHT22;15385;51.088;6.572;2023-04-24T01:16:19;11.50;99.90
28075;DHT22;15385;51.088;6.572;2023-04-24T01:18:53;11.40;99.90
28075;DHT22;15385;51.088;6.572;2023-04-24T01:21:25;11.40;99.90
28075;DHT22;15385;51.088;6.572;2023-04-24T01:23:57;11.30;99.90
28075;DHT22;15385;51.088;6.572;2023-04-24T01:26:28;11.30;99.90
28075;DHT22;15385;51.088;6.572;2023-04-24T01:28:59;11.20;99.90
28075;DHT22;15385;51.088;6.572;2023-04-24T01:31:30;11.30;99.90
28075;DHT22;15385;51.088;6.572;2023-04-24T01:34:01;11.40;99.90
28075;DHT22;15385;51.088;6.572;2023-04-24T01:36:33;11.40;99.90
28075;DHT22;15385;51.088;6.572;2023-04-24T01:39:06;11.50;99.90
28075;DHT22;15385;51.088;6.572;2023-04-24T01:41:37;11.50;99.90
28075;DHT22;15385;51.088;6.572;2023-04-24T01:44:07;11.40;99.90
28075;DHT22;15385;51.088;6.572;2023-04-24T01:46:38;11.40;99.90
28075;DHT22;15385;51.088;6.572;2023-04-24T01:49:09;11.40;99.90
28075;DHT22;15385;51.088;6.572;2023-04-24T01:51:39;11.50;99.90
28075;DHT22;15385;51.088;6.572;2023-04-24T01:54:10;11.50;99.90
28075;DHT22;15385;51.088;6.572;2023-04-24T01:56:42;11.40;99.90
28075;DHT22;15385;51.088;6.572;2023-04-24T01:59:13;11.50;99.90
28075;DHT22;15385;51.088;6.572;2023-04-24T02:01:43;11.50;99.90
28075;DHT22;15385;51.088;6.572;2023-04-24T02:04:14;11.50;99.90
28075;DHT22;15385;51.088;6.572;2023-04-24T02:06:45;11.50;99.90
28075;DHT22;15385;51.088;6.572;2023-04-24T02:09:16;11.40;99.90
28075;DHT22;15385;51.088;6.572;2023-04-24T02:11:47;11.40;99.90
28075;DHT22;15385;51.088;6.572;2023-04-24T02:14:17;11.50;99.90
28075;DHT22;15385;51.088;6.572;2023-04-24T02:16:48;11.50;99.90
28075;DHT22;15385;51.088;6.572;2023-04-24T02:19:19;11.40;99.90
28075;DHT22;15385;51.088;6.572;2023-04-24T02:21:49;11.40;99.90
28075;DHT22;15385;51.088;6.572;2023-04-24T02:24:20;11.40;99.90
28075;DHT22;15385;51.088;6.572;2023-04-24T02:26:51;11.40;99.90
28075;DHT22;15385;51.088;6.572;2023-04-24T02:29:21;11.30;99.90
28075;DHT22;15385;51.088;6.572;2023-04-24T02:31:53;11.40;99.90
28075;DHT22;15385;51.088;6.572;2023-04-24T02:34:23;11.40;99.90
28075;DHT22;15385;51.088;6.572;2023-04-24T02:36:54;11.40;99.90
28075;DHT22;15385;51.088;6.572;2023-04-24T02:39:24;11.30;99.90
28075;DHT22;15385;51.088;6.572;2023-04-24T02:41:55;11.40;99.90
28075;DHT22;15385;51.088;6.572;2023-04-24T02:44:26;11.40;99.90
28075;DHT22;15385;51.088;6.572;2023-04-24T02:46:56;11.40;99.90
28075;DHT22;15385;51.088;6.572;2023-04-24T02:49:27;11.40;99.90
28075;DHT22;15385;51.088;6.572;2023-04-24T02:51:57;11.50;99.90
28075;DHT22;15385;51.088;6.572;2023-04-24T02:54:28;11.40;99.90
28075;DHT22;15385;51.088;6.572;2023-04-24T02:56:58;11.30;99.90
28075;DHT22;15385;51.088;6.572;2023-04-24T02:59:29;11.40;99.90
28075;DHT22;15385;51.088;6.572;2023-04-24T03:02:00;11.40;99.90
28075;DHT22;15385;51.088;6.572;2023-04-24T03:04:30;11.40;99.90
28075;DHT22;15385;51.088;6.572;2023-04-24T03:07:01;11.30;99.90
28075;DHT22;15385;51.088;6.572;2023-04-24T03:09:31;11.30;99.90
28075;DHT22;15385;51.088;6.572;2023-04-24T03:12:02;11.20;99.90
28075;DHT22;15385;51.088;6.572;2023-04-24T03:14:32;11.20;99.90
28075;DHT22;15385;51.088;6.572;2023-04-24T03:17:03;11.20;99.90
28075;DHT22;15385;51.088;6.572;2023-04-24T03:19:34;11.30;99.90
28075;DHT22;15385;51.088;6.572;2023-04-24T03:22:04;11.30;99.90
28075;DHT22;15385;51.088;6.572;2023-04-24T03:24:35;11.30;99.90
28075;DHT22;15385;51.088;6.572;2023-04-24T03:27:06;11.30;99.90
28075;DHT22;15385;51.088;6.572;2023-04-24T03:29:36;11.30;99.90
28075;DHT22;15385;51.088;6.572;2023-04-24T03:32:07;11.30;99.90
28075;DHT22;15385;51.088;6.572;2023-04-24T03:34:37;11.20;99.90
28075;DHT22;15385;51.088;6.572;2023-04-24T03:37:08;11.30;99.90
28075;DHT22;15385;51.088;6.572;2023-04-24T03:39:38;11.30;99.90
28075;DHT22;15385;51.088;6.572;2023-04-24T03:42:09;11.30;99.90
28075;DHT22;15385;51.088;6.572;2023-04-24T03:44:40;11.30;99.90
28075;DHT22;15385;51.088;6.572;2023-04-24T03:47:10;11.20;99.90
28075;DHT22;15385;51.088;6.572;2023-04-24T03:49:41;11.20;99.90
28075;DHT22;15385;51.088;6.572;2023-04-24T03:52:12;11.20;99.90
28075;DHT22;15385;51.088;6.572;2023-04-24T03:54:42;11.20;99.90
28075;DHT22;15385;51.088;6.572;2023-04-24T03:57:13;11.20;99.90
28075;DHT22;15385;51.088;6.572;2023-04-24T03:59:43;11.10;99.90
28075;DHT22;15385;51.088;6.572;2023-04-24T04:02:14;11.00;99.90
28075;DHT22;15385;51.088;6.572;2023-04-24T04:04:45;11.10;99.90
28075;DHT22;15385;51.088;6.572;2023-04-24T04:07:16;11.00;99.90
28075;DHT22;15385;51.088;6.572;2023-04-24T04:09:47;11.10;99.90
28075;DHT22;15385;51.088;6.572;2023-04-24T04:12:17;11.10;99.90
28075;DHT22;15385;51.088;6.572;2023-04-24T04:14:48;11.00;99.90
28075;DHT22;15385;51.088;6.572;2023-04-24T04:17:18;11.00;99.90
28075;DHT22;15385;51.088;6.572;2023-04-24T04:19:49;11.00;99.90
28075;DHT22;15385;51.088;6.572;2023-04-24T04:22:20;11.00;99.90
28075;DHT22;15385;51.088;6.572;2023-04-24T04:24:50;11.10;99.90
28075;DHT22;15385;51.088;6.572;2023-04-24T04:27:21;11.10;99.90
28075;DHT22;15385;51.088;6.572;2023-04-24T04:29:52;11.10;99.90
28075;DHT22;15385;51.088;6.572;2023-04-24T04:32:22;11.10;99.90
28075;DHT22;15385;51.088;6.572;2023-04-24T04:34:53;11.10;99.90
28075;DHT22;15385;51.088;6.572;2023-04-24T04:37:24;11.00;99.90
28075;DHT22;15385;51.088;6.572;2023-04-24T04:39:55;10.90;99.90
28075;DHT22;15385;51.088;6.572;2023-04-24T04:42:26;10.90;99.90
28075;DHT22;15385;51.088;6.572;2023-04-24T04:44:57;10.90;99.90
28075;DHT22;15385;51.088;6.572;2023-04-24T04:47:28;10.90;99.90
28075;DHT22;15385;51.088;6.572;2023-04-24T04:49:58;11.00;99.90
28075;DHT22;15385;51.088;6.572;2023-04-24T04:52:29;10.90;99.90
28075;DHT22;15385;51.088;6.572;2023-04-24T04:55:00;10.90;99.90
28075;DHT22;15385;51.088;6.572;2023-04-24T04:57:31;10.90;99.90
28075;DHT22;15385;51.088;6.572;2023-04-24T05:00:02;10.80;99.90
28075;DHT22;15385;51.088;6.572;2023-04-24T05:02:32;10.80;99.90
28075;DHT22;15385;51.088;6.572;2023-04-24T05:05:03;10.90;99.90
28075;DHT22;15385;51.088;6.572;2023-04-24T05:07:34;10.90;99.90
28075;DHT22;15385;51.088;6.572;2023-04-24T05:10:05;11.00;99.90
28075;DHT22;15385;51.088;6.572;2023-04-24T05:12:36;10.90;99.90
28075;DHT22;15385;51.088;6.572;2023-04-24T05:15:07;10.80;99.90
28075;DHT22;15385;51.088;6.572;2023-04-24T05:17:37;10.70;99.90
28075;DHT22;15385;51.088;6.572;2023-04-24T05:20:10;10.70;99.90
28075;DHT22;15385;51.088;6.572;2023-04-24T05:22:40;10.70;99.90
28075;DHT22;15385;51.088;6.572;2023-04-24T05:25:11;10.70;99.90
28075;DHT22;15385;51.088;6.572;2023-04-24T05:27:42;10.70;99.90
28075;DHT22;15385;51.088;6.572;2023-04-24T05:30:13;10.70;99.90
28075;DHT22;15385;51.088;6.572;2023-04-24T05:32:44;10.70;99.90
28075;DHT22;15385;51.088;6.572;2023-04-24T05:35:15;10.70;99.90
28075;DHT22;15385;51.088;6.572;2023-04-24T05:37:46;10.70;99.90
28075;DHT22;15385;51.088;6.572;2023-04-24T05:40:16;10.70;99.90
28075;DHT22;15385;51.088;6.572;2023-04-24T05:42:47;10.60;99.90
28075;DHT22;15385;51.088;6.572;2023-04-24T05:45:17;10.60;99.90
28075;DHT22;15385;51.088;6.572;2023-04-24T05:47:48;10.60;99.90
28075;DHT22;15385;51.088;6.572;2023-04-24T05:50:18;10.50;99.90
28075;DHT22;15385;51.088;6.572;2023-04-24T05:52:49;10.50;99.90
28075;DHT22;15385;51.088;6.572;2023-04-24T05:55:20;10.50;99.90
28075;DHT22;15385;51.088;6.572;2023-04-24T05:57:51;10.50;99.90
28075;DHT22;15385;51.088;6.572;2023-04-24T06:00:23;10.60;99.90
28075;DHT22;15385;51.088;6.572;2023-04-24T06:02:54;10.50;99.90
28075;DHT22;15385;51.088;6.572;2023-04-24T06:05:25;10.60;99.90
28075;DHT22;15385;51.088;6.572;2023-04-24T06:07:56;10.50;99.90
28075;DHT22;15385;51.088;6.572;2023-04-24T06:10:27;10.50;99.90
28075;DHT22;15385;51.088;6.572;2023-04-24T06:12:57;10.50;99.90
28075;DHT22;15385;51.088;6.572;2023-04-24T06:15:30;10.50;99.90
28075;DHT22;15385;51.088;6.572;2023-04-24T06:18:01;10.40;99.90
28075;DHT22;15385;51.088;6.572;2023-04-24T06:20:31;10.40;99.90
28075;DHT22;15385;51.088;6.572;2023-04-24T06:23:02;10.30;99.90
28075;DHT22;15385;51.088;6.572;2023-04-24T06:25:33;10.20;99.90
28075;DHT22;15385;51.088;6.572;2023-04-24T06:28:03;10.20;99.90
28075;DHT22;15385;51.088;6.572;2023-04-24T06:30:34;10.20;99.90
28075;DHT22;15385;51.088;6.572;2023-04-24T06:33:04;10.10;99.90
28075;DHT22;15385;51.088;6.572;2023-04-24T06:35:36;10.10;99.90
28075;DHT22;15385;51.088;6.572;2023-04-24T06:38:08;10.10;99.90
28075;DHT22;15385;51.088;6.572;2023-04-24T06:40:38;10.20;99.90
28075;DHT22;15385;51.088;6.572;2023-04-24T06:43:09;10.20;99.90
28075;DHT22;15385;51.088;6.572;2023-04-24T06:45:41;10.20;99.90
28075;DHT22;15385;51.088;6.572;2023-04-24T06:48:13;10.20;99.90
28075;DHT22;15385;51.088;6.572;2023-04-24T06:50:44;10.20;99.90
28075;DHT22;15385;51.088;6.572;2023-04-24T06:53:15;10.20;99.90
28075;DHT22;15385;51.088;6.572;2023-04-24T06:55:46;10.20;99.90
28075;DHT22;15385;51.088;6.572;2023-04-24T06:58:17;10.10;99.90
28075;DHT22;15385;51.088;6.572;2023-04-24T07:00:48;10.10;99.90
28075;DHT22;15385;51.088;6.572;2023-04-24T07:03:18;10.00;99.90
28075;DHT22;15385;51.088;6.572;2023-04-24T07:05:49;9.90;99.90
28075;DHT22;15385;51.088;6.572;2023-04-24T07:08:19;9.80;99.90
28075;DHT22;15385;51.088;6.572;2023-04-24T07:10:52;9.80;99.90
28075;DHT22;15385;51.088;6.572;2023-04-24T07:13:23;9.80;99.90
28075;DHT22;15385;51.088;6.572;2023-04-24T07:15:54;9.80;99.90
28075;DHT22;15385;51.088;6.572;2023-04-24T07:18:26;9.90;99.90
28075;DHT22;15385;51.088;6.572;2023-04-24T07:20:57;10.00;99.90
28075;DHT22;15385;51.088;6.572;2023-04-24T07:23:27;9.80;99.90
28075;DHT22;15385;51.088;6.572;2023-04-24T07:25:58;9.80;99.90
28075;DHT22;15385;51.088;6.572;2023-04-24T07:28:28;9.70;99.90
28075;DHT22;15385;51.088;6.572;2023-04-24T07:31:02;9.70;99.90
28075;DHT22;15385;51.088;6.572;2023-04-24T07:33:32;9.70;99.90
28075;DHT22;15385;51.088;6.572;2023-04-24T07:36:03;9.60;99.90
28075;DHT22;15385;51.088;6.572;2023-04-24T07:38:34;9.50;99.90
28075;DHT22;15385;51.088;6.572;2023-04-24T07:41:05;9.30;99.90
28075;DHT22;15385;51.088;6.572;2023-04-24T07:43:35;9.10;99.90
28075;DHT22;15385;51.088;6.572;2023-04-24T07:46:07;9.10;99.90
28075;DHT22;15385;51.088;6.572;2023-04-24T07:48:38;8.90;99.90
28075;DHT22;15385;51.088;6.572;2023-04-24T07:51:09;9.00;99.90
28075;DHT22;15385;51.088;6.572;2023-04-24T07:53:42;9.00;99.90
28075;DHT22;15385;51.088;6.572;2023-04-24T07:56:13;9.00;99.90
28075;DHT22;15385;51.088;6.572;2023-04-24T07:58:43;9.00;99.90
28075;DHT22;15385;51.088;6.572;2023-04-24T08:01:14;9.00;99.90
28075;DHT22;15385;51.088;6.572;2023-04-24T08:03:45;9.10;99.90
28075;DHT22;15385;51.088;6.572;2023-04-24T08:06:15;9.10;99.90
28075;DHT22;15385;51.088;6.572;2023-04-24T08:08:46;9.20;99.90
28075;DHT22;15385;51.088;6.572;2023-04-24T08:11:16;9.30;99.90
28075;DHT22;15385;51.088;6.572;2023-04-24T08:13:47;9.20;99.90
28075;DHT22;15385;51.088;6.572;2023-04-24T08:16:17;9.20;99.90
28075;DHT22;15385;51.088;6.572;2023-04-24T08:18:48;9.20;99.90
28075;DHT22;15385;51.088;6.572;2023-04-24T08:21:19;9.20;99.90
28075;DHT22;15385;51.088;6.572;2023-04-24T08:23:50;9.20;99.90
28075;DHT22;15385;51.088;6.572;2023-04-24T08:26:21;9.20;99.90
28075;DHT22;15385;51.088;6.572;2023-04-24T08:28:52;9.20;99.90
28075;DHT22;15385;51.088;6.572;2023-04-24T08:31:22;9.10;99.90
28075;DHT22;15385;51.088;6.572;2023-04-24T08:33:55;9.20;99.90
28075;DHT22;15385;51.088;6.572;2023-04-24T08:36:25;9.20;99.90
28075;DHT22;15385;51.088;6.572;2023-04-24T08:38:56;9.10;99.90
28075;DHT22;15385;51.088;6.572;2023-04-24T08:41:27;9.10;99.90
28075;DHT22;15385;51.088;6.572;2023-04-24T08:43:58;9.10;99.90
28075;DHT22;15385;51.088;6.572;2023-04-24T08:46:30;9.10;99.90
28075;DHT22;15385;51.088;6.572;2023-04-24T08:49:01;9.20;99.90
28075;DHT22;15385;51.088;6.572;2023-04-24T08:51:33;9.10;99.90
28075;DHT22;15385;51.088;6.572;2023-04-24T08:54:04;9.20;99.90
28075;DHT22;15385;51.088;6.572;2023-04-24T08:56:36;9.20;99.90
28075;DHT22;15385;51.088;6.572;2023-04-24T08:59:10;9.20;99.90
28075;DHT22;15385;51.088;6.572;2023-04-24T09:01:41;9.30;99.90
28075;DHT22;15385;51.088;6.572;2023-04-24T09:04:14;9.30;99.90
28075;DHT22;15385;51.088;6.572;2023-04-24T09:06:48;9.30;99.90
28075;DHT22;15385;51.088;6.572;2023-04-24T09:09:19;9.40;99.90
28075;DHT22;15385;51.088;6.572;2023-04-24T09:11:51;9.40;99.90
28075;DHT22;15385;51.088;6.572;2023-04-24T09:14:24;9.50;99.90
28075;DHT22;15385;51.088;6.572;2023-04-24T09:16:54;9.50;99.90
28075;DHT22;15385;51.088;6.572;2023-04-24T09:19:25;9.50;99.90
28075;DHT22;15385;51.088;6.572;2023-04-24T09:21:56;9.60;99.90
28075;DHT22;15385;51.088;6.572;2023-04-24T09:24:27;9.60;99.90
28075;DHT22;15385;51.088;6.572;2023-04-24T09:26:58;9.70;99.90
28075;DHT22;15385;51.088;6.572;2023-04-24T09:29:29;9.80;99.90
28075;DHT22;15385;51.088;6.572;2023-04-24T09:32:18;9.80;99.90
28075;DHT22;15385;51.088;6.572;2023-04-24T09:34:49;9.70;99.90
28075;DHT22;15385;51.088;6.572;2023-04-24T09:37:29;9.80;99.90
28075;DHT22;15385;51.088;6.572;2023-04-24T09:40:20;9.80;99.90
28075;DHT22;15385;51.088;6.572;2023-04-24T09:45:22;9.90;99.90
28075;DHT22;15385;51.088;6.572;2023-04-24T09:47:53;10.00;99.90
28075;DHT22;15385;51.088;6.572;2023-04-24T09:50:24;10.10;99.90
28075;DHT22;15385;51.088;6.572;2023-04-24T09:52:59;10.20;99.90
28075;DHT22;15385;51.088;6.572;2023-04-24T09:55:31;10.30;99.90
28075;DHT22;15385;51.088;6.572;2023-04-24T09:58:02;10.30;99.90
28075;DHT22;15385;51.088;6.572;2023-04-24T10:00:35;10.40;99.90
28075;DHT22;15385;51.088;6.572;2023-04-24T10:03:06;10.40;99.90
28075;DHT22;15385;51.088;6.572;2023-04-24T10:05:37;10.50;99.90
28075;DHT22;15385;51.088;6.572;2023-04-24T10:08:11;10.50;99.90
28075;DHT22;15385;51.088;6.572;2023-04-24T10:10:43;10.60;99.90
28075;DHT22;15385;51.088;6.572;2023-04-24T10:13:15;10.70;99.90
28075;DHT22;15385;51.088;6.572;2023-04-24T10:15:47;10.70;99.90
28075;DHT22;15385;51.088;6.572;2023-04-24T10:18:20;10.80;99.90
28075;DHT22;15385;51.088;6.572;2023-04-24T10:20:52;10.70;99.90
28075;DHT22;15385;51.088;6.572;2023-04-24T10:23:25;10.60;99.90
28075;DHT22;15385;51.088;6.572;2023-04-24T10:25:56;10.60;99.90
28075;DHT22;15385;51.088;6.572;2023-04-24T10:28:27;10.70;99.90
28075;DHT22;15385;51.088;6.572;2023-04-24T10:31:00;10.70;99.90
28075;DHT22;15385;51.088;6.572;2023-04-24T10:33:31;10.70;99.90
28075;DHT22;15385;51.088;6.572;2023-04-24T10:36:02;10.70;99.90
28075;DHT22;15385;51.088;6.572;2023-04-24T10:38:34;10.70;99.90
28075;DHT22;15385;51.088;6.572;2023-04-24T10:41:10;10.60;99.90
28075;DHT22;15385;51.088;6.572;2023-04-24T10:43:44;10.60;99.90
28075;DHT22;15385;51.088;6.572;2023-04-24T10:46:21;10.60;99.90
28075;DHT22;15385;51.088;6.572;2023-04-24T10:48:53;10.60;99.90
28075;DHT22;15385;51.088;6.572;2023-04-24T10:51:53;10.60;99.90
28075;DHT22;15385;51.088;6.572;2023-04-24T10:54:44;10.50;99.90
28075;DHT22;15385;51.088;6.572;2023-04-24T11:00:12;10.50;99.90
28075;DHT22;15385;51.088;6.572;2023-04-24T11:02:46;10.70;99.90
28075;DHT22;15385;51.088;6.572;2023-04-24T11:05:22;10.90;99.90
28075;DHT22;15385;51.088;6.572;2023-04-24T11:08:11;11.20;99.90
28075;DHT22;15385;51.088;6.572;2023-04-24T11:10:47;11.40;99.90
28075;DHT22;15385;51.088;6.572;2023-04-24T11:13:21;11.70;99.90
28075;DHT22;15385;51.088;6.572;2023-04-24T11:18:44;12.50;99.90
28075;DHT22;15385;51.088;6.572;2023-04-24T11:21:22;12.70;99.90
28075;DHT22;15385;51.088;6.572;2023-04-24T11:23:52;12.80;99.90
28075;DHT22;15385;51.088;6.572;2023-04-24T11:26:23;12.70;99.90
28075;DHT22;15385;51.088;6.572;2023-04-24T11:29:09;12.60;99.90
28075;DHT22;15385;51.088;6.572;2023-04-24T11:31:41;12.90;99.90
28075;DHT22;15385;51.088;6.572;2023-04-24T11:34:19;13.10;99.90
28075;DHT22;15385;51.088;6.572;2023-04-24T11:36:49;12.90;99.90
28075;DHT22;15385;51.088;6.572;2023-04-24T11:39:20;12.70;99.90
28075;DHT22;15385;51.088;6.572;2023-04-24T11:41:51;12.50;99.90
28075;DHT22;15385;51.088;6.572;2023-04-24T11:44:22;12.20;99.90
28075;DHT22;15385;51.088;6.572;2023-04-24T11:46:55;12.10;99.90
28075;DHT22;15385;51.088;6.572;2023-04-24T11:49:26;12.00;99.90
28075;DHT22;15385;51.088;6.572;2023-04-24T11:51:57;12.00;99.90
28075;DHT22;15385;51.088;6.572;2023-04-24T11:54:28;11.80;99.90
28075;DHT22;15385;51.088;6.572;2023-04-24T11:56:58;11.80;99.90
28075;DHT22;15385;51.088;6.572;2023-04-24T11:59:30;11.80;99.90
28075;DHT22;15385;51.088;6.572;2023-04-24T12:02:05;11.80;99.90
28075;DHT22;15385;51.088;6.572;2023-04-24T12:04:40;11.60;99.90
28075;DHT22;15385;51.088;6.572;2023-04-24T12:07:13;11.50;99.90
28075;DHT22;15385;51.088;6.572;2023-04-24T12:09:46;11.60;99.90
28075;DHT22;15385;51.088;6.572;2023-04-24T12:12:18;11.70;99.90
28075;DHT22;15385;51.088;6.572;2023-04-24T12:14:52;11.90;99.90
28075;DHT22;15385;51.088;6.572;2023-04-24T12:17:31;12.10;99.90
28075;DHT22;15385;51.088;6.572;2023-04-24T12:20:04;12.20;99.90
28075;DHT22;15385;51.088;6.572;2023-04-24T12:22:52;12.30;99.90
28075;DHT22;15385;51.088;6.572;2023-04-24T12:25:27;12.30;99.90
28075;DHT22;15385;51.088;6.572;2023-04-24T12:30:47;12.30;99.90
28075;DHT22;15385;51.088;6.572;2023-04-24T12:33:19;12.40;99.90
28075;DHT22;15385;51.088;6.572;2023-04-24T12:35:53;12.60;99.90
28075;DHT22;15385;51.088;6.572;2023-04-24T12:38:28;13.00;99.90
28075;DHT22;15385;51.088;6.572;2023-04-24T12:41:05;13.10;99.90
28075;DHT22;15385;51.088;6.572;2023-04-24T12:43:36;13.20;99.90
28075;DHT22;15385;51.088;6.572;2023-04-24T12:46:07;13.30;99.90
28075;DHT22;15385;51.088;6.572;2023-04-24T12:48:38;13.20;99.90
28075;DHT22;15385;51.088;6.572;2023-04-24T12:51:09;13.20;99.90
28075;DHT22;15385;51.088;6.572;2023-04-24T12:53:39;13.10;99.90
28075;DHT22;15385;51.088;6.572;2023-04-24T12:56:10;13.00;99.90
28075;DHT22;15385;51.088;6.572;2023-04-24T12:58:41;13.00;99.90
28075;DHT22;15385;51.088;6.572;2023-04-24T13:01:11;13.00;99.90
28075;DHT22;15385;51.088;6.572;2023-04-24T13:03:42;13.00;99.90
28075;DHT22;15385;51.088;6.572;2023-04-24T13:06:13;13.10;99.90
28075;DHT22;15385;51.088;6.572;2023-04-24T13:08:44;13.40;99.90
28075;DHT22;15385;51.088;6.572;2023-04-24T13:11:15;13.90;99.90
28075;DHT22;15385;51.088;6.572;2023-04-24T13:13:45;14.20;99.90
28075;DHT22;15385;51.088;6.572;2023-04-24T13:16:16;14.10;99.90
28075;DHT22;15385;51.088;6.572;2023-04-24T13:18:47;14.00;99.90
28075;DHT22;15385;51.088;6.572;2023-04-24T13:21:17;13.80;99.90
28075;DHT22;15385;51.088;6.572;2023-04-24T13:23:48;13.50;99.90
28075;DHT22;15385;51.088;6.572;2023-04-24T13:26:19;13.30;99.90
28075;DHT22;15385;51.088;6.572;2023-04-24T13:28:50;13.10;99.90
28075;DHT22;15385;51.088;6.572;2023-04-24T13:31:20;12.90;99.90
28075;DHT22;15385;51.088;6.572;2023-04-24T13:33:51;12.90;99.90
28075;DHT22;15385;51.088;6.572;2023-04-24T13:36:22;12.90;99.90
28075;DHT22;15385;51.088;6.572;2023-04-24T13:38:52;13.00;99.90
28075;DHT22;15385;51.088;6.572;2023-04-24T13:41:23;13.00;99.90
28075;DHT22;15385;51.088;6.572;2023-04-24T13:43:54;13.00;99.90
28075;DHT22;15385;51.088;6.572;2023-04-24T13:46:25;13.10;99.90
28075;DHT22;15385;51.088;6.572;2023-04-24T13:48:56;13.20;99.90
28075;DHT22;15385;51.088;6.572;2023-04-24T13:51:27;13.10;99.90
28075;DHT22;15385;51.088;6.572;2023-04-24T13:53:58;13.30;99.90
28075;DHT22;15385;51.088;6.572;2023-04-24T13:56:30;13.30;99.90
28075;DHT22;15385;51.088;6.572;2023-04-24T13:59:01;13.60;99.90
28075;DHT22;15385;51.088;6.572;2023-04-24T14:01:31;13.90;99.90
28075;DHT22;15385;51.088;6.572;2023-04-24T14:04:02;14.00;99.90
28075;DHT22;15385;51.088;6.572;2023-04-24T14:06:32;13.70;99.90
28075;DHT22;15385;51.088;6.572;2023-04-24T14:09:03;13.70;99.90
28075;DHT22;15385;51.088;6.572;2023-04-24T14:11:35;13.60;99.90
28075;DHT22;15385;51.088;6.572;2023-04-24T14:14:05;13.50;99.90
28075;DHT22;15385;51.088;6.572;2023-04-24T14:16:36;13.50;99.90
28075;DHT22;15385;51.088;6.572;2023-04-24T14:19:07;13.50;99.90
28075;DHT22;15385;51.088;6.572;2023-04-24T14:21:37;13.70;99.90
28075;DHT22;15385;51.088;6.572;2023-04-24T14:24:08;13.60;99.90
28075;DHT22;15385;51.088;6.572;2023-04-24T14:26:39;13.50;99.90
28075;DHT22;15385;51.088;6.572;2023-04-24T14:29:10;13.50;99.90
28075;DHT22;15385;51.088;6.572;2023-04-24T14:31:41;13.50;99.90
28075;DHT22;15385;51.088;6.572;2023-04-24T14:34:13;13.50;99.90
28075;DHT22;15385;51.088;6.572;2023-04-24T14:36:44;13.60;99.90
28075;DHT22;15385;51.088;6.572;2023-04-24T14:39:14;13.60;99.90
28075;DHT22;15385;51.088;6.572;2023-04-24T14:41:45;13.70;99.90
28075;DHT22;15385;51.088;6.572;2023-04-24T14:44:15;13.90;99.90
28075;DHT22;15385;51.088;6.572;2023-04-24T14:46:46;14.10;99.90
28075;DHT22;15385;51.088;6.572;2023-04-24T14:49:17;14.30;99.90
28075;DHT22;15385;51.088;6.572;2023-04-24T14:51:47;14.20;99.90
28075;DHT22;15385;51.088;6.572;2023-04-24T14:54:18;14.10;99.90
28075;DHT22;15385;51.088;6.572;2023-04-24T14:56:49;14.20;99.90
28075;DHT22;15385;51.088;6.572;2023-04-24T14:59:21;14.30;99.90
28075;DHT22;15385;51.088;6.572;2023-04-24T15:01:51;14.60;99.90
28075;DHT22;15385;51.088;6.572;2023-04-24T15:04:24;14.80;99.90
28075;DHT22;15385;51.088;6.572;2023-04-24T15:06:57;14.90;99.90
28075;DHT22;15385;51.088;6.572;2023-04-24T15:09:28;15.10;99.90
28075;DHT22;15385;51.088;6.572;2023-04-24T15:11:59;15.10;99.90
28075;DHT22;15385;51.088;6.572;2023-04-24T15:14:30;14.90;99.90
28075;DHT22;15385;51.088;6.572;2023-04-24T15:17:00;14.60;99.90
28075;DHT22;15385;51.088;6.572;2023-04-24T15:19:31;14.50;99.90
28075;DHT22;15385;51.088;6.572;2023-04-24T15:22:02;14.40;99.90
28075;DHT22;15385;51.088;6.572;2023-04-24T15:24:32;14.50;99.90
28075;DHT22;15385;51.088;6.572;2023-04-24T15:27:03;14.80;99.90
28075;DHT22;15385;51.088;6.572;2023-04-24T15:29:33;15.10;99.90
28075;DHT22;15385;51.088;6.572;2023-04-24T15:32:04;15.20;99.90
28075;DHT22;15385;51.088;6.572;2023-04-24T15:34:35;15.40;99.90
28075;DHT22;15385;51.088;6.572;2023-04-24T15:37:06;15.40;99.90
28075;DHT22;15385;51.088;6.572;2023-04-24T15:39:36;15.00;99.90
28075;DHT22;15385;51.088;6.572;2023-04-24T15:42:07;15.20;99.90
28075;DHT22;15385;51.088;6.572;2023-04-24T15:44:38;15.30;99.90
28075;DHT22;15385;51.088;6.572;2023-04-24T15:47:08;15.20;99.90
28075;DHT22;15385;51.088;6.572;2023-04-24T15:49:39;14.70;99.90
28075;DHT22;15385;51.088;6.572;2023-04-24T15:52:10;14.50;99.90
28075;DHT22;15385;51.088;6.572;2023-04-24T15:54:41;14.40;99.90
28075;DHT22;15385;51.088;6.572;2023-04-24T15:57:11;14.30;99.90
28075;DHT22;15385;51.088;6.572;2023-04-24T15:59:43;14.20;99.90
28075;DHT22;15385;51.088;6.572;2023-04-24T16:02:14;14.10;99.90
28075;DHT22;15385;51.088;6.572;2023-04-24T16:04:49;14.10;99.90
28075;DHT22;15385;51.088;6.572;2023-04-24T16:07:20;14.10;99.90
28075;DHT22;15385;51.088;6.572;2023-04-24T16:09:50;14.20;99.90